Terminal Aerodrome Forecast
Issued by NWS Grand Rapids, MI

Home | Current Version | Previous Version | Text Only | Print | Product List | Glossary On
Versions: 1 2 3 4 5 6 7 8 9 10 11 12 13 14 15 16 17 18 19 20 21 22 23 24 25 26
451
FTUS43 KGRR 201741
TAFGRR
TAF
KGRR 201741Z 2018/2118 21010KT 4SM -RA BR OVC012
      TEMPO 2018/2022 2SM RA BR OVC008
     FM202200 24010KT 2SM RA BR OVC006
     FM210600 30010KT 4SM -RASN BR OVC007
     FM211000 31011KT P6SM OVC015
     FM211400 32011KT P6SM SCT025 BKN040=

USA.gov is the U.S. government's official web portal to all federal, state and local government web resources and services.